Terminal Aerodrome Forecast
Issued by NWS Buffalo, NY

Home | Current Version | Previous Version | Text Only | Print | Product List | Glossary On
Versions: 1 2 3 4 5 6 7 8 9 10 11 12 13 14 15 16 17 18 19 20 21 22 23 24 25 26 27
260
FTUS41 KBUF 031505 AAA
TAFART
TAF AMD
KART 031505Z 0315/0412 31013G19KT P6SM OVC040
     FM032100 30011KT P6SM BKN050
     FM040100 32007KT P6SM BKN050
     FM041000 VRB03KT P6SM BKN050=

USA.gov is the U.S. government's official web portal to all federal, state and local government web resources and services.